Terminal Aerodrome Forecast
Issued by NWS

Home | Current Version | Previous Version | Text Only | Print | Product List | Glossary On
Versions: 1 2 3 4 5 6 7 8 9 10 11 12 13 14 15 16 17 18 19 20 21 22 23 24 25 26 27 28 29 30 31 32
000
FTUS43 KPAH 231700
TAFOWB
TAF
KOWB 231720Z 2318/2418 14008KT P6SM VCSH OVC025
      TEMPO 2318/2320 5SM -SHRA BR OVC015
     FM232000 15012KT 3SM -RA BR OVC005
      TEMPO 2320/2324 1SM SHRA BR OVC003
     FM240300 20012G20KT P6SM OVC010
     FM241300 23020G30KT P6SM OVC010=

USA.gov is the U.S. government's official web portal to all federal, state and local government web resources and services.